sensor_id;sensor_type;location;lat;lon;timestamp;temperature;humidity
8988;DHT22;4529;51.360;12.474;2024-03-02T00:01:32;7.40;99.90
8988;DHT22;4529;51.360;12.474;2024-03-02T00:06:35;7.40;99.90
8988;DHT22;4529;51.360;12.474;2024-03-02T00:11:39;7.40;99.90
8988;DHT22;4529;51.360;12.474;2024-03-02T00:16:42;7.40;99.90
8988;DHT22;4529;51.360;12.474;2024-03-02T00:21:45;7.30;99.90
8988;DHT22;4529;51.360;12.474;2024-03-02T00:26:49;7.40;99.90
8988;DHT22;4529;51.360;12.474;2024-03-02T00:31:52;7.40;99.90
8988;DHT22;4529;51.360;12.474;2024-03-02T00:36:57;7.40;99.90
8988;DHT22;4529;51.360;12.474;2024-03-02T00:42:01;7.40;99.90
8988;DHT22;4529;51.360;12.474;2024-03-02T00:47:05;7.40;99.90
8988;DHT22;4529;51.360;12.474;2024-03-02T00:52:09;7.40;99.90
8988;DHT22;4529;51.360;12.474;2024-03-02T00:57:13;7.50;99.90
8988;DHT22;4529;51.360;12.474;2024-03-02T01:02:16;7.50;99.90
8988;DHT22;4529;51.360;12.474;2024-03-02T01:07:20;7.50;99.90
8988;DHT22;4529;51.360;12.474;2024-03-02T01:12:23;7.50;99.90
8988;DHT22;4529;51.360;12.474;2024-03-02T01:17:27;7.50;99.90
8988;DHT22;4529;51.360;12.474;2024-03-02T01:22:30;7.60;99.90
8988;DHT22;4529;51.360;12.474;2024-03-02T01:27:34;7.60;99.90
8988;DHT22;4529;51.360;12.474;2024-03-02T01:32:40;7.60;99.90
8988;DHT22;4529;51.360;12.474;2024-03-02T01:37:43;7.60;99.90
8988;DHT22;4529;51.360;12.474;2024-03-02T01:42:47;7.60;99.90
8988;DHT22;4529;51.360;12.474;2024-03-02T01:47:51;7.60;99.90
8988;DHT22;4529;51.360;12.474;2024-03-02T01:52:58;7.60;99.90
8988;DHT22;4529;51.360;12.474;2024-03-02T01:58:01;7.70;99.90
8988;DHT22;4529;51.360;12.474;2024-03-02T02:03:05;7.70;99.90
8988;DHT22;4529;51.360;12.474;2024-03-02T02:08:08;7.70;99.90
8988;DHT22;4529;51.360;12.474;2024-03-02T02:13:12;7.80;99.90
8988;DHT22;4529;51.360;12.474;2024-03-02T02:18:16;7.80;99.90
8988;DHT22;4529;51.360;12.474;2024-03-02T02:23:20;7.90;99.90
8988;DHT22;4529;51.360;12.474;2024-03-02T02:28:24;7.90;99.90
8988;DHT22;4529;51.360;12.474;2024-03-02T02:33:27;7.90;99.90
8988;DHT22;4529;51.360;12.474;2024-03-02T02:38:32;8.00;99.90
8988;DHT22;4529;51.360;12.474;2024-03-02T02:43:36;8.00;99.90
8988;DHT22;4529;51.360;12.474;2024-03-02T02:48:40;8.10;99.90
8988;DHT22;4529;51.360;12.474;2024-03-02T02:53:44;8.10;99.90
8988;DHT22;4529;51.360;12.474;2024-03-02T02:58:48;8.00;99.90
8988;DHT22;4529;51.360;12.474;2024-03-02T03:03:52;8.00;99.90
8988;DHT22;4529;51.360;12.474;2024-03-02T03:08:56;8.00;99.90
8988;DHT22;4529;51.360;12.474;2024-03-02T03:13:59;8.00;99.90
8988;DHT22;4529;51.360;12.474;2024-03-02T03:19:02;8.00;99.90
8988;DHT22;4529;51.360;12.474;2024-03-02T03:24:06;8.00;99.90
8988;DHT22;4529;51.360;12.474;2024-03-02T03:29:10;8.20;99.90
8988;DHT22;4529;51.360;12.474;2024-03-02T03:34:14;8.20;99.90
8988;DHT22;4529;51.360;12.474;2024-03-02T03:39:17;8.40;99.90
8988;DHT22;4529;51.360;12.474;2024-03-02T03:44:20;8.50;99.90
8988;DHT22;4529;51.360;12.474;2024-03-02T03:49:25;8.60;99.90
8988;DHT22;4529;51.360;12.474;2024-03-02T03:54:29;8.70;99.90
8988;DHT22;4529;51.360;12.474;2024-03-02T03:59:33;8.70;99.90
8988;DHT22;4529;51.360;12.474;2024-03-02T04:04:36;8.70;99.90
8988;DHT22;4529;51.360;12.474;2024-03-02T04:09:40;8.80;99.90
8988;DHT22;4529;51.360;12.474;2024-03-02T04:14:43;8.90;99.90
8988;DHT22;4529;51.360;12.474;2024-03-02T04:19:47;8.90;99.90
8988;DHT22;4529;51.360;12.474;2024-03-02T04:24:50;8.90;99.90
8988;DHT22;4529;51.360;12.474;2024-03-02T04:29:54;9.00;99.90
8988;DHT22;4529;51.360;12.474;2024-03-02T04:34:58;9.00;99.90
8988;DHT22;4529;51.360;12.474;2024-03-02T04:40:03;9.00;99.90
8988;DHT22;4529;51.360;12.474;2024-03-02T04:45:06;9.00;99.90
8988;DHT22;4529;51.360;12.474;2024-03-02T04:50:09;9.00;99.90
8988;DHT22;4529;51.360;12.474;2024-03-02T04:55:13;9.00;99.90
8988;DHT22;4529;51.360;12.474;2024-03-02T05:00:16;9.00;99.90
8988;DHT22;4529;51.360;12.474;2024-03-02T05:05:20;9.00;99.90
8988;DHT22;4529;51.360;12.474;2024-03-02T05:10:23;9.00;99.90
8988;DHT22;4529;51.360;12.474;2024-03-02T05:15:27;9.00;99.90
8988;DHT22;4529;51.360;12.474;2024-03-02T05:20:32;9.00;99.90
8988;DHT22;4529;51.360;12.474;2024-03-02T05:25:36;8.90;99.90
8988;DHT22;4529;51.360;12.474;2024-03-02T05:30:42;8.60;99.90
8988;DHT22;4529;51.360;12.474;2024-03-02T05:35:44;8.30;99.90
8988;DHT22;4529;51.360;12.474;2024-03-02T05:40:48;8.20;99.90
8988;DHT22;4529;51.360;12.474;2024-03-02T05:45:52;8.00;99.90
8988;DHT22;4529;51.360;12.474;2024-03-02T05:50:56;8.00;99.90
8988;DHT22;4529;51.360;12.474;2024-03-02T05:55:59;8.00;99.90
8988;DHT22;4529;51.360;12.474;2024-03-02T06:01:03;8.00;99.90
8988;DHT22;4529;51.360;12.474;2024-03-02T06:06:06;8.00;99.90
8988;DHT22;4529;51.360;12.474;2024-03-02T06:11:09;8.00;99.90
8988;DHT22;4529;51.360;12.474;2024-03-02T06:16:13;8.00;99.90
8988;DHT22;4529;51.360;12.474;2024-03-02T06:21:16;8.10;99.90
8988;DHT22;4529;51.360;12.474;2024-03-02T06:26:20;8.30;99.90
8988;DHT22;4529;51.360;12.474;2024-03-02T06:31:25;8.40;99.90
8988;DHT22;4529;51.360;12.474;2024-03-02T06:36:29;8.50;99.90
8988;DHT22;4529;51.360;12.474;2024-03-02T06:41:33;8.50;99.90
8988;DHT22;4529;51.360;12.474;2024-03-02T06:46:37;8.60;99.90
8988;DHT22;4529;51.360;12.474;2024-03-02T06:51:40;8.50;99.90
8988;DHT22;4529;51.360;12.474;2024-03-02T06:56:44;8.60;99.90
8988;DHT22;4529;51.360;12.474;2024-03-02T07:01:47;8.80;99.90
8988;DHT22;4529;51.360;12.474;2024-03-02T07:06:51;8.80;99.90
8988;DHT22;4529;51.360;12.474;2024-03-02T07:11:54;8.80;99.90
8988;DHT22;4529;51.360;12.474;2024-03-02T07:16:58;8.90;99.90
8988;DHT22;4529;51.360;12.474;2024-03-02T07:22:01;9.00;99.90
8988;DHT22;4529;51.360;12.474;2024-03-02T07:27:05;9.10;99.90
8988;DHT22;4529;51.360;12.474;2024-03-02T07:32:10;9.10;99.90
8988;DHT22;4529;51.360;12.474;2024-03-02T07:37:15;9.20;99.90
8988;DHT22;4529;51.360;12.474;2024-03-02T07:42:18;9.20;99.90
8988;DHT22;4529;51.360;12.474;2024-03-02T07:47:23;9.40;99.90
8988;DHT22;4529;51.360;12.474;2024-03-02T07:52:27;9.30;99.90
8988;DHT22;4529;51.360;12.474;2024-03-02T07:57:31;9.40;99.90
8988;DHT22;4529;51.360;12.474;2024-03-02T08:02:35;9.50;99.90
8988;DHT22;4529;51.360;12.474;2024-03-02T08:07:39;9.50;99.90
8988;DHT22;4529;51.360;12.474;2024-03-02T08:12:43;9.60;99.90
8988;DHT22;4529;51.360;12.474;2024-03-02T08:17:52;9.60;99.90
8988;DHT22;4529;51.360;12.474;2024-03-02T08:22:56;9.50;99.90
8988;DHT22;4529;51.360;12.474;2024-03-02T08:27:59;9.60;99.90
8988;DHT22;4529;51.360;12.474;2024-03-02T08:33:03;9.00;99.90
8988;DHT22;4529;51.360;12.474;2024-03-02T08:38:06;8.80;99.90
8988;DHT22;4529;51.360;12.474;2024-03-02T08:43:09;8.80;99.90
8988;DHT22;4529;51.360;12.474;2024-03-02T08:48:14;8.80;99.90
8988;DHT22;4529;51.360;12.474;2024-03-02T08:53:18;8.80;99.90
8988;DHT22;4529;51.360;12.474;2024-03-02T08:58:22;9.10;99.90
8988;DHT22;4529;51.360;12.474;2024-03-02T09:03:25;9.10;99.90
8988;DHT22;4529;51.360;12.474;2024-03-02T09:08:29;9.40;99.90
8988;DHT22;4529;51.360;12.474;2024-03-02T09:13:32;9.60;99.90
8988;DHT22;4529;51.360;12.474;2024-03-02T09:18:36;9.80;99.90
8988;DHT22;4529;51.360;12.474;2024-03-02T09:23:39;10.00;99.90
8988;DHT22;4529;51.360;12.474;2024-03-02T09:28:45;10.20;99.90
8988;DHT22;4529;51.360;12.474;2024-03-02T09:33:49;10.30;99.90
8988;DHT22;4529;51.360;12.474;2024-03-02T09:38:52;10.50;99.90
8988;DHT22;4529;51.360;12.474;2024-03-02T09:43:56;10.70;99.90
8988;DHT22;4529;51.360;12.474;2024-03-02T09:48:59;10.80;99.90
8988;DHT22;4529;51.360;12.474;2024-03-02T09:54:03;11.00;99.90
8988;DHT22;4529;51.360;12.474;2024-03-02T09:59:06;11.00;99.90
8988;DHT22;4529;51.360;12.474;2024-03-02T10:04:10;11.10;99.90
8988;DHT22;4529;51.360;12.474;2024-03-02T10:09:13;11.20;99.90
8988;DHT22;4529;51.360;12.474;2024-03-02T10:14:17;11.30;99.90
8988;DHT22;4529;51.360;12.474;2024-03-02T10:19:23;11.50;99.90
8988;DHT22;4529;51.360;12.474;2024-03-02T10:24:27;11.70;99.90
8988;DHT22;4529;51.360;12.474;2024-03-02T10:29:31;11.80;99.90
8988;DHT22;4529;51.360;12.474;2024-03-02T10:34:35;11.90;99.90
8988;DHT22;4529;51.360;12.474;2024-03-02T10:39:39;12.10;99.90
8988;DHT22;4529;51.360;12.474;2024-03-02T10:44:43;12.10;99.90
8988;DHT22;4529;51.360;12.474;2024-03-02T10:49:46;12.40;99.90
8988;DHT22;4529;51.360;12.474;2024-03-02T10:54:50;12.70;99.90
8988;DHT22;4529;51.360;12.474;2024-03-02T10:59:56;12.90;99.90
8988;DHT22;4529;51.360;12.474;2024-03-02T11:04:57;13.20;99.90
8988;DHT22;4529;51.360;12.474;2024-03-02T11:10:01;13.20;99.90
8988;DHT22;4529;51.360;12.474;2024-03-02T11:15:05;13.30;99.90
8988;DHT22;4529;51.360;12.474;2024-03-02T11:20:08;13.40;99.90
8988;DHT22;4529;51.360;12.474;2024-03-02T11:25:26;13.50;99.90
8988;DHT22;4529;51.360;12.474;2024-03-02T11:35:43;13.70;99.90
8988;DHT22;4529;51.360;12.474;2024-03-02T11:40:46;13.70;99.90
8988;DHT22;4529;51.360;12.474;2024-03-02T11:45:52;13.80;99.90
8988;DHT22;4529;51.360;12.474;2024-03-02T11:50:52;13.70;99.90
8988;DHT22;4529;51.360;12.474;2024-03-02T11:55:56;13.70;99.90
8988;DHT22;4529;51.360;12.474;2024-03-02T12:00:59;13.70;99.90
8988;DHT22;4529;51.360;12.474;2024-03-02T12:06:03;13.80;99.90
8988;DHT22;4529;51.360;12.474;2024-03-02T12:11:06;13.80;99.90
8988;DHT22;4529;51.360;12.474;2024-03-02T12:16:10;13.90;99.90
8988;DHT22;4529;51.360;12.474;2024-03-02T12:21:13;13.90;99.90
8988;DHT22;4529;51.360;12.474;2024-03-02T12:26:17;13.80;99.90
8988;DHT22;4529;51.360;12.474;2024-03-02T12:31:22;13.80;99.90
8988;DHT22;4529;51.360;12.474;2024-03-02T12:36:24;13.90;99.90
8988;DHT22;4529;51.360;12.474;2024-03-02T12:41:28;13.90;99.90
8988;DHT22;4529;51.360;12.474;2024-03-02T12:46:32;14.00;99.90
8988;DHT22;4529;51.360;12.474;2024-03-02T12:51:35;14.00;99.90
8988;DHT22;4529;51.360;12.474;2024-03-02T12:56:40;14.20;99.90
8988;DHT22;4529;51.360;12.474;2024-03-02T13:01:56;14.30;99.90
8988;DHT22;4529;51.360;12.474;2024-03-02T13:06:59;14.30;99.90
8988;DHT22;4529;51.360;12.474;2024-03-02T13:12:03;14.50;99.90
8988;DHT22;4529;51.360;12.474;2024-03-02T13:17:07;14.50;99.90
8988;DHT22;4529;51.360;12.474;2024-03-02T13:22:19;14.50;99.90
8988;DHT22;4529;51.360;12.474;2024-03-02T13:27:22;14.50;99.90
8988;DHT22;4529;51.360;12.474;2024-03-02T13:32:25;14.60;99.90
8988;DHT22;4529;51.360;12.474;2024-03-02T13:37:29;14.60;99.90
8988;DHT22;4529;51.360;12.474;2024-03-02T13:42:33;14.80;99.90
8988;DHT22;4529;51.360;12.474;2024-03-02T13:47:37;14.90;99.90
8988;DHT22;4529;51.360;12.474;2024-03-02T13:52:41;14.80;99.90
8988;DHT22;4529;51.360;12.474;2024-03-02T13:57:46;14.90;99.90
8988;DHT22;4529;51.360;12.474;2024-03-02T14:02:49;15.00;99.90
8988;DHT22;4529;51.360;12.474;2024-03-02T14:07:54;15.00;99.90
8988;DHT22;4529;51.360;12.474;2024-03-02T14:12:58;15.00;99.90
8988;DHT22;4529;51.360;12.474;2024-03-02T14:18:07;15.00;99.90
8988;DHT22;4529;51.360;12.474;2024-03-02T14:23:11;15.00;99.90
8988;DHT22;4529;51.360;12.474;2024-03-02T14:28:14;15.00;99.90
8988;DHT22;4529;51.360;12.474;2024-03-02T14:33:18;15.00;99.90
8988;DHT22;4529;51.360;12.474;2024-03-02T14:38:21;15.00;99.90
8988;DHT22;4529;51.360;12.474;2024-03-02T14:43:25;14.80;99.90
8988;DHT22;4529;51.360;12.474;2024-03-02T14:48:28;14.60;99.90
8988;DHT22;4529;51.360;12.474;2024-03-02T14:53:32;14.50;99.90
8988;DHT22;4529;51.360;12.474;2024-03-02T14:58:35;14.50;99.90
8988;DHT22;4529;51.360;12.474;2024-03-02T15:03:40;14.30;99.90
8988;DHT22;4529;51.360;12.474;2024-03-02T15:08:42;14.10;99.90
8988;DHT22;4529;51.360;12.474;2024-03-02T15:13:45;13.90;99.90
8988;DHT22;4529;51.360;12.474;2024-03-02T15:18:49;13.80;99.90
8988;DHT22;4529;51.360;12.474;2024-03-02T15:23:53;13.80;99.90
8988;DHT22;4529;51.360;12.474;2024-03-02T15:28:57;13.70;99.90
8988;DHT22;4529;51.360;12.474;2024-03-02T15:34:01;13.60;99.90
8988;DHT22;4529;51.360;12.474;2024-03-02T15:39:05;13.50;99.90
8988;DHT22;4529;51.360;12.474;2024-03-02T15:44:10;13.30;99.90
8988;DHT22;4529;51.360;12.474;2024-03-02T15:49:14;13.20;99.90
8988;DHT22;4529;51.360;12.474;2024-03-02T15:54:18;13.20;99.90
8988;DHT22;4529;51.360;12.474;2024-03-02T15:59:22;13.10;99.90
8988;DHT22;4529;51.360;12.474;2024-03-02T16:04:26;13.00;99.90
8988;DHT22;4529;51.360;12.474;2024-03-02T16:09:30;12.90;99.90
8988;DHT22;4529;51.360;12.474;2024-03-02T16:14:34;13.20;99.90
8988;DHT22;4529;51.360;12.474;2024-03-02T16:19:38;13.30;99.90
8988;DHT22;4529;51.360;12.474;2024-03-02T16:24:43;13.40;99.90
8988;DHT22;4529;51.360;12.474;2024-03-02T16:29:46;13.40;99.90
8988;DHT22;4529;51.360;12.474;2024-03-02T16:34:50;13.40;99.90
8988;DHT22;4529;51.360;12.474;2024-03-02T16:39:54;13.40;99.90
8988;DHT22;4529;51.360;12.474;2024-03-02T16:44:58;13.40;99.90
8988;DHT22;4529;51.360;12.474;2024-03-02T16:50:01;13.30;99.90
8988;DHT22;4529;51.360;12.474;2024-03-02T16:55:05;13.20;99.90
8988;DHT22;4529;51.360;12.474;2024-03-02T17:00:09;13.10;99.90
8988;DHT22;4529;51.360;12.474;2024-03-02T17:05:13;13.10;99.90
8988;DHT22;4529;51.360;12.474;2024-03-02T17:10:17;12.80;99.90
8988;DHT22;4529;51.360;12.474;2024-03-02T17:15:21;12.40;99.90
8988;DHT22;4529;51.360;12.474;2024-03-02T17:20:25;12.20;99.90
8988;DHT22;4529;51.360;12.474;2024-03-02T17:25:29;12.00;99.90
8988;DHT22;4529;51.360;12.474;2024-03-02T17:30:33;11.90;99.90
8988;DHT22;4529;51.360;12.474;2024-03-02T17:35:37;11.80;99.90
8988;DHT22;4529;51.360;12.474;2024-03-02T17:40:41;11.70;99.90
8988;DHT22;4529;51.360;12.474;2024-03-02T17:45:44;11.70;99.90
8988;DHT22;4529;51.360;12.474;2024-03-02T17:50:48;11.50;99.90
8988;DHT22;4529;51.360;12.474;2024-03-02T17:55:51;11.40;99.90
8988;DHT22;4529;51.360;12.474;2024-03-02T18:00:55;11.30;99.90
8988;DHT22;4529;51.360;12.474;2024-03-02T18:05:58;11.20;99.90
8988;DHT22;4529;51.360;12.474;2024-03-02T18:11:02;11.10;99.90
8988;DHT22;4529;51.360;12.474;2024-03-02T18:16:05;11.00;99.90
8988;DHT22;4529;51.360;12.474;2024-03-02T18:21:09;11.00;99.90
8988;DHT22;4529;51.360;12.474;2024-03-02T18:26:12;10.90;99.90
8988;DHT22;4529;51.360;12.474;2024-03-02T18:31:16;10.80;99.90
8988;DHT22;4529;51.360;12.474;2024-03-02T18:36:19;10.80;99.90
8988;DHT22;4529;51.360;12.474;2024-03-02T18:41:23;10.70;99.90
8988;DHT22;4529;51.360;12.474;2024-03-02T18:46:26;10.70;99.90
8988;DHT22;4529;51.360;12.474;2024-03-02T18:51:29;10.60;99.90
8988;DHT22;4529;51.360;12.474;2024-03-02T18:56:33;10.50;99.90
8988;DHT22;4529;51.360;12.474;2024-03-02T19:01:36;10.50;99.90
8988;DHT22;4529;51.360;12.474;2024-03-02T19:06:41;10.30;99.90
8988;DHT22;4529;51.360;12.474;2024-03-02T19:11:44;10.30;99.90
8988;DHT22;4529;51.360;12.474;2024-03-02T19:16:47;10.30;99.90
8988;DHT22;4529;51.360;12.474;2024-03-02T19:21:52;10.10;99.90
8988;DHT22;4529;51.360;12.474;2024-03-02T19:26:56;10.10;99.90
8988;DHT22;4529;51.360;12.474;2024-03-02T19:32:00;10.00;99.90
8988;DHT22;4529;51.360;12.474;2024-03-02T19:37:04;9.90;99.90
8988;DHT22;4529;51.360;12.474;2024-03-02T19:42:08;9.90;99.90
8988;DHT22;4529;51.360;12.474;2024-03-02T19:47:11;9.80;99.90
8988;DHT22;4529;51.360;12.474;2024-03-02T19:52:15;9.70;99.90
8988;DHT22;4529;51.360;12.474;2024-03-02T19:57:18;9.60;99.90
8988;DHT22;4529;51.360;12.474;2024-03-02T20:02:22;9.50;99.90
8988;DHT22;4529;51.360;12.474;2024-03-02T20:07:25;9.40;99.90
8988;DHT22;4529;51.360;12.474;2024-03-02T20:12:30;9.30;99.90
8988;DHT22;4529;51.360;12.474;2024-03-02T20:17:34;9.30;99.90
8988;DHT22;4529;51.360;12.474;2024-03-02T20:22:37;9.20;99.90
8988;DHT22;4529;51.360;12.474;2024-03-02T20:27:41;9.00;99.90
8988;DHT22;4529;51.360;12.474;2024-03-02T20:32:44;8.90;99.90
8988;DHT22;4529;51.360;12.474;2024-03-02T20:37:47;8.80;99.90
8988;DHT22;4529;51.360;12.474;2024-03-02T20:42:51;8.80;99.90
8988;DHT22;4529;51.360;12.474;2024-03-02T20:47:54;8.70;99.90
8988;DHT22;4529;51.360;12.474;2024-03-02T20:52:58;8.60;99.90
8988;DHT22;4529;51.360;12.474;2024-03-02T20:58:02;8.40;99.90
8988;DHT22;4529;51.360;12.474;2024-03-02T21:03:06;8.30;99.90
8988;DHT22;4529;51.360;12.474;2024-03-02T21:08:09;8.30;99.90
8988;DHT22;4529;51.360;12.474;2024-03-02T21:13:13;8.30;99.90
8988;DHT22;4529;51.360;12.474;2024-03-02T21:18:16;8.30;99.90
8988;DHT22;4529;51.360;12.474;2024-03-02T21:23:20;8.20;99.90
8988;DHT22;4529;51.360;12.474;2024-03-02T21:28:23;8.20;99.90
8988;DHT22;4529;51.360;12.474;2024-03-02T21:33:27;8.20;99.90
8988;DHT22;4529;51.360;12.474;2024-03-02T21:38:30;8.30;99.90
8988;DHT22;4529;51.360;12.474;2024-03-02T21:43:34;8.30;99.90
8988;DHT22;4529;51.360;12.474;2024-03-02T21:48:38;8.30;99.90
8988;DHT22;4529;51.360;12.474;2024-03-02T21:53:43;8.30;99.90
8988;DHT22;4529;51.360;12.474;2024-03-02T21:58:46;8.30;99.90
8988;DHT22;4529;51.360;12.474;2024-03-02T22:03:49;8.20;99.90
8988;DHT22;4529;51.360;12.474;2024-03-02T22:08:53;8.30;99.90
8988;DHT22;4529;51.360;12.474;2024-03-02T22:13:56;8.30;99.90
8988;DHT22;4529;51.360;12.474;2024-03-02T22:19:00;8.30;99.90
8988;DHT22;4529;51.360;12.474;2024-03-02T22:24:04;8.20;99.90
8988;DHT22;4529;51.360;12.474;2024-03-02T22:29:09;8.10;99.90
8988;DHT22;4529;51.360;12.474;2024-03-02T22:34:12;8.10;99.90
8988;DHT22;4529;51.360;12.474;2024-03-02T22:39:17;8.10;99.90
8988;DHT22;4529;51.360;12.474;2024-03-02T22:44:21;8.10;99.90
8988;DHT22;4529;51.360;12.474;2024-03-02T22:49:24;8.10;99.90
8988;DHT22;4529;51.360;12.474;2024-03-02T22:54:28;8.10;99.90
8988;DHT22;4529;51.360;12.474;2024-03-02T22:59:32;8.10;99.90
8988;DHT22;4529;51.360;12.474;2024-03-02T23:04:36;8.10;99.90
8988;DHT22;4529;51.360;12.474;2024-03-02T23:09:40;8.10;99.90
8988;DHT22;4529;51.360;12.474;2024-03-02T23:14:44;8.10;99.90
8988;DHT22;4529;51.360;12.474;2024-03-02T23:19:48;8.20;99.90
8988;DHT22;4529;51.360;12.474;2024-03-02T23:24:52;8.20;99.90
8988;DHT22;4529;51.360;12.474;2024-03-02T23:29:56;8.10;99.90
8988;DHT22;4529;51.360;12.474;2024-03-02T23:35:00;8.10;99.90
8988;DHT22;4529;51.360;12.474;2024-03-02T23:40:03;8.20;99.90
8988;DHT22;4529;51.360;12.474;2024-03-02T23:45:07;8.20;99.90
8988;DHT22;4529;51.360;12.474;2024-03-02T23:50:10;8.20;99.90
8988;DHT22;4529;51.360;12.474;2024-03-02T23:55:13;8.30;99.90
